KCIC/CIC METAR and TAF weather

Enter ICAO airport designator
Station Type Date Time Source
KCIC METAR 2019/10/21 21:54 UTC NOAA

KCIC 212154Z 31016G24KT 40SM FEW200 30/02 A3014


Station Type Date Time Source
KCIC Decoded METAR 2019/10/21 21:54 UTC NOAA

Chico Municipal , CA, United States (KCIC) 39-48N 121-51W
Oct 21, 2019 - 05:54 PM EDT / 2019.10.21 2154 UTC
Wind: from the NW (310 degrees) at 18 MPH (16 KT) gusting to 28 MPH (24 KT):0
Visibility: 40 mile(s):0
Sky conditions: mostly clear
Temperature: 86 F (30 C)
Dew Point: 35 F (2 C)
Relative Humidity: 16%
Pressure (altimeter): 30.14 in. Hg (1020 hPa)
ob: KCIC 212154Z 31016G24KT 40SM FEW200 30/02 A3014
cycle: 22

Station Type Date Time Source
KCIC TAF UTC NOAA

Error!

Example: see airport list